Time;durP1;ratioP1;P1;durP2;ratioP2;P2;SDS_P1;SDS_P2;PMS_P1;PMS_P2;Temp;Humidity;BMP_temperature;BMP_pressure;BME280_temperature;BME280_humidity;BME280_pressure;Samples;Min_cycle;Max_cycle;Signal;HPM_P1;HPM_P2
2022/09/16 00:00:46;;;;;;;0.80;0.30;;;;;;;;;;4565575;28;20474;-70
2022/09/16 00:02:57;;;;;;;0.40;0.20;;;;;;;;;;4566259;28;20127;-71
2022/09/16 00:05:08;;;;;;;0.43;0.30;;;;;;;;;;4567280;28;20458;-74
2022/09/16 00:07:19;;;;;;;0.45;0.20;;;;;;;;;;4566701;28;20052;-76
2022/09/16 00:09:29;;;;;;;1.02;0.40;;;;;;;;;;4550096;28;20520;-70
2022/09/16 00:11:40;;;;;;;1.08;0.20;;;;;;;;;;4571107;28;20439;-71
2022/09/16 00:13:50;;;;;;;0.17;0.17;;;;;;;;;;4553186;28;20036;-71
2022/09/16 00:16:01;;;;;;;0.75;0.20;;;;;;;;;;4552425;28;20036;-70
2022/09/16 00:18:11;;;;;;;0.35;0.20;;;;;;;;;;4520649;28;20045;-71
2022/09/16 00:20:22;;;;;;;1.02;0.30;;;;;;;;;;4552575;28;20056;-70
2022/09/16 00:22:32;;;;;;;0.93;0.40;;;;;;;;;;4537076;28;20211;-71
2022/09/16 00:24:43;;;;;;;0.30;0.20;;;;;;;;;;4553716;28;20052;-75
2022/09/16 00:26:54;;;;;;;0.43;0.20;;;;;;;;;;4563561;28;20572;-73
2022/09/16 00:29:04;;;;;;;0.43;0.20;;;;;;;;;;4546639;28;20040;-71
2022/09/16 00:31:15;;;;;;;0.17;0.17;;;;;;;;;;4556691;28;20041;-71
2022/09/16 00:33:26;;;;;;;0.55;0.30;;;;;;;;;;4571916;28;20462;-70
2022/09/16 00:35:36;;;;;;;0.50;0.22;;;;;;;;;;4561937;28;20592;-71
2022/09/16 00:37:47;;;;;;;0.95;0.30;;;;;;;;;;4539124;28;20109;-70
2022/09/16 00:39:57;;;;;;;0.68;0.30;;;;;;;;;;4570457;28;20086;-73
2022/09/16 00:42:10;;;;;;;0.85;0.20;;;;;;;;;;4553258;28;20053;-71
2022/09/16 00:44:49;;;;;;;1.08;0.30;;;;;;;;;;4539786;28;20596;-71
2022/09/16 00:47:00;;;;;;;0.63;0.30;;;;;;;;;;4571098;28;20036;-71
2022/09/16 00:49:24;;;;;;;1.98;0.30;;;;;;;;;;4572034;28;20036;-71
2022/09/16 00:51:35;;;;;;;0.93;0.30;;;;;;;;;;4538915;28;20056;-72
2022/09/16 00:53:55;;;;;;;1.23;0.30;;;;;;;;;;4545718;28;20048;-72
2022/09/16 00:56:08;;;;;;;0.73;0.20;;;;;;;;;;4547003;28;20614;-71
2022/09/16 00:58:27;;;;;;;0.32;0.20;;;;;;;;;;4537177;28;20083;-72
2022/09/16 01:00:38;;;;;;;0.65;0.28;;;;;;;;;;4552418;28;20052;-72
2022/09/16 01:02:49;;;;;;;1.17;0.38;;;;;;;;;;4556762;28;20928;-72
2022/09/16 01:05:11;;;;;;;0.70;0.30;;;;;;;;;;4548864;28;20045;-71
2022/09/16 01:07:30;;;;;;;0.85;0.30;;;;;;;;;;4552986;28;20059;-71
2022/09/16 01:09:40;;;;;;;0.30;0.30;;;;;;;;;;4556282;28;20048;-71
2022/09/16 01:11:51;;;;;;;0.68;0.30;;;;;;;;;;4570817;28;20044;-71
2022/09/16 01:16:37;;;;;;;0.88;0.30;;;;;;;;;;4557637;28;20055;-71
2022/09/16 01:18:58;;;;;;;1.45;0.30;;;;;;;;;;4546460;28;20110;-72
2022/09/16 01:21:17;;;;;;;0.40;0.17;;;;;;;;;;4561653;28;20124;-70
2022/09/16 01:23:39;;;;;;;0.68;0.30;;;;;;;;;;4551777;28;20579;-71
2022/09/16 01:26:18;;;;;;;1.02;0.30;;;;;;;;;;4545961;28;20583;-71
2022/09/16 01:29:02;;;;;;;1.00;0.30;;;;;;;;;;4572057;28;20561;-71
2022/09/16 01:31:24;;;;;;;1.13;0.50;;;;;;;;;;4569756;28;20036;-73
2022/09/16 01:33:58;;;;;;;0.82;0.40;;;;;;;;;;4552452;28;20049;-71
2022/09/16 01:36:20;;;;;;;0.52;0.30;;;;;;;;;;4552224;28;20106;-70
2022/09/16 01:38:52;;;;;;;0.30;0.30;;;;;;;;;;4568668;28;20040;-72
2022/09/16 01:41:18;;;;;;;0.63;0.38;;;;;;;;;;4555698;28;20055;-70
2022/09/16 01:43:59;;;;;;;0.90;0.52;;;;;;;;;;4572043;28;20160;-71
2022/09/16 01:46:37;;;;;;;0.68;0.50;;;;;;;;;;4571216;28;20049;-71
2022/09/16 01:48:56;;;;;;;1.65;0.50;;;;;;;;;;4571705;28;20041;-73
2022/09/16 01:51:30;;;;;;;1.25;0.60;;;;;;;;;;4542464;28;20064;-72
2022/09/16 01:53:47;;;;;;;0.60;0.50;;;;;;;;;;4545259;28;21351;-70
2022/09/16 01:56:19;;;;;;;0.75;0.47;;;;;;;;;;4545648;28;20044;-71
2022/09/16 01:58:40;;;;;;;1.17;0.82;;;;;;;;;;4536003;28;20057;-70
2022/09/16 02:00:54;;;;;;;1.30;0.50;;;;;;;;;;4552271;28;20053;-70
2022/09/16 02:03:09;;;;;;;1.33;0.50;;;;;;;;;;4544027;28;20037;-70
2022/09/16 02:05:31;;;;;;;1.48;0.65;;;;;;;;;;4555503;28;20155;-71
2022/09/16 02:07:46;;;;;;;0.93;0.50;;;;;;;;;;4545094;28;20052;-72
2022/09/16 02:10:07;;;;;;;0.52;0.40;;;;;;;;;;4555532;28;20036;-71
2022/09/16 02:12:21;;;;;;;0.85;0.50;;;;;;;;;;4554689;28;20060;-71
2022/09/16 02:14:35;;;;;;;1.55;0.50;;;;;;;;;;4521208;28;20140;-72
2022/09/16 02:16:55;;;;;;;0.60;0.43;;;;;;;;;;4545037;28;20614;-71
2022/09/16 02:19:11;;;;;;;0.80;0.60;;;;;;;;;;4553630;28;20610;-74
2022/09/16 02:21:24;;;;;;;1.23;0.68;;;;;;;;;;4545514;28;20108;-70
2022/09/16 02:23:38;;;;;;;1.00;0.50;;;;;;;;;;4555228;28;20048;-71
2022/09/16 02:25:49;;;;;;;0.50;0.40;;;;;;;;;;4545100;28;20134;-69
2022/09/16 02:28:01;;;;;;;0.60;0.50;;;;;;;;;;4545447;28;20200;-70
2022/09/16 02:30:18;;;;;;;1.27;0.93;;;;;;;;;;4555722;28;20049;-71
2022/09/16 02:32:30;;;;;;;0.93;0.70;;;;;;;;;;4544731;28;20106;-75
2022/09/16 02:34:46;;;;;;;1.05;0.77;;;;;;;;;;4542729;28;20051;-69
2022/09/16 02:37:04;;;;;;;1.33;0.50;;;;;;;;;;4559434;28;20040;-70
2022/09/16 02:39:19;;;;;;;0.90;0.60;;;;;;;;;;4522089;28;20041;-70
2022/09/16 02:41:29;;;;;;;0.90;0.60;;;;;;;;;;4544488;28;20036;-70
2022/09/16 02:43:41;;;;;;;1.25;0.57;;;;;;;;;;4537961;28;20045;-70
2022/09/16 02:45:54;;;;;;;1.00;0.57;;;;;;;;;;4555543;28;20776;-70
2022/09/16 02:48:13;;;;;;;1.23;0.60;;;;;;;;;;4552951;28;20036;-71
2022/09/16 02:50:28;;;;;;;1.20;0.60;;;;;;;;;;4544923;28;20630;-70
2022/09/16 02:52:43;;;;;;;0.63;0.45;;;;;;;;;;4561788;28;20147;-69
2022/09/16 02:55:06;;;;;;;2.42;0.60;;;;;;;;;;4568158;28;20049;-71
2022/09/16 02:57:16;;;;;;;0.98;0.70;;;;;;;;;;4561243;28;20071;-71
2022/09/16 02:59:27;;;;;;;0.73;0.50;;;;;;;;;;4568598;28;20036;-72
2022/09/16 03:01:43;;;;;;;0.82;0.57;;;;;;;;;;4569134;28;20048;-71
2022/09/16 03:03:55;;;;;;;1.65;0.60;;;;;;;;;;4544042;28;20052;-70
2022/09/16 03:06:17;;;;;;;1.23;0.70;;;;;;;;;;4554874;28;20051;-72
2022/09/16 03:08:28;;;;;;;0.90;0.65;;;;;;;;;;4520224;28;20041;-72
2022/09/16 03:10:42;;;;;;;1.42;0.70;;;;;;;;;;4561882;28;20496;-70
2022/09/16 03:13:11;;;;;;;0.73;0.57;;;;;;;;;;4554143;28;20080;-74
2022/09/16 03:16:01;;;;;;;0.88;0.50;;;;;;;;;;4569048;28;20044;-69
2022/09/16 03:18:17;;;;;;;1.48;0.75;;;;;;;;;;4543431;28;20139;-71
2022/09/16 03:20:39;;;;;;;1.25;0.70;;;;;;;;;;4569044;28;20045;-71
2022/09/16 03:22:57;;;;;;;0.68;0.60;;;;;;;;;;4569510;28;20044;-71
2022/09/16 03:25:15;;;;;;;0.68;0.57;;;;;;;;;;4552529;28;20032;-71
2022/09/16 03:27:31;;;;;;;1.75;0.65;;;;;;;;;;4550373;28;20820;-70
2022/09/16 03:29:59;;;;;;;0.73;0.50;;;;;;;;;;4551503;28;20029;-71
2022/09/16 03:32:22;;;;;;;1.83;0.50;;;;;;;;;;4544460;28;20056;-70
2022/09/16 03:34:39;;;;;;;0.93;0.60;;;;;;;;;;4557776;28;20047;-72
2022/09/16 03:36:56;;;;;;;0.70;0.40;;;;;;;;;;4537233;28;20076;-72
2022/09/16 03:39:07;;;;;;;1.33;0.60;;;;;;;;;;4552200;28;20078;-69
2022/09/16 03:41:17;;;;;;;0.70;0.52;;;;;;;;;;4559543;28;20122;-70
2022/09/16 03:43:28;;;;;;;1.20;0.50;;;;;;;;;;4568029;28;20110;-70
2022/09/16 03:45:44;;;;;;;0.75;0.50;;;;;;;;;;4553340;28;20049;-70
2022/09/16 03:47:55;;;;;;;1.25;0.50;;;;;;;;;;4547992;28;20041;-71
2022/09/16 03:50:05;;;;;;;0.90;0.60;;;;;;;;;;4554347;28;20500;-70
2022/09/16 03:52:17;;;;;;;0.65;0.40;;;;;;;;;;4541325;28;20478;-70
2022/09/16 03:54:28;;;;;;;0.73;0.40;;;;;;;;;;4541798;28;20895;-70
2022/09/16 03:56:38;;;;;;;0.88;0.50;;;;;;;;;;4572578;28;20041;-73
2022/09/16 03:58:49;;;;;;;1.13;0.52;;;;;;;;;;4546915;28;20083;-71
2022/09/16 04:00:59;;;;;;;1.52;0.60;;;;;;;;;;4552510;28;20079;-70
2022/09/16 04:03:10;;;;;;;1.05;0.68;;;;;;;;;;4540782;28;20037;-69
2022/09/16 04:05:20;;;;;;;1.70;0.60;;;;;;;;;;4553282;28;20041;-69
2022/09/16 04:07:32;;;;;;;0.90;0.60;;;;;;;;;;4554033;28;20100;-72
2022/09/16 04:09:42;;;;;;;0.80;0.50;;;;;;;;;;4553225;28;20646;-71
2022/09/16 04:11:53;;;;;;;1.25;0.70;;;;;;;;;;4554518;28;20055;-70
2022/09/16 04:14:04;;;;;;;1.65;0.52;;;;;;;;;;4564038;28;20540;-71
2022/09/16 04:16:20;;;;;;;1.65;0.70;;;;;;;;;;4554963;28;20049;-70
2022/09/16 04:18:31;;;;;;;1.33;0.63;;;;;;;;;;4540570;28;20055;-70
2022/09/16 04:20:41;;;;;;;1.33;0.55;;;;;;;;;;4539736;28;20037;-70
2022/09/16 04:22:52;;;;;;;1.58;0.63;;;;;;;;;;4546762;28;20049;-71
2022/09/16 04:25:03;;;;;;;0.95;0.60;;;;;;;;;;4553865;28;20045;-70
2022/09/16 04:27:13;;;;;;;1.40;0.65;;;;;;;;;;4555946;28;20044;-69
2022/09/16 04:29:24;;;;;;;1.00;0.60;;;;;;;;;;4556085;28;20032;-70
2022/09/16 04:31:34;;;;;;;1.13;0.80;;;;;;;;;;4554037;28;20048;-70
2022/09/16 04:33:45;;;;;;;1.13;0.70;;;;;;;;;;4546550;28;20053;-70
2022/09/16 04:36:07;;;;;;;1.42;0.80;;;;;;;;;;4571457;28;20110;-70
2022/09/16 04:38:17;;;;;;;1.48;0.90;;;;;;;;;;4521643;28;20041;-70
2022/09/16 04:40:28;;;;;;;1.15;0.80;;;;;;;;;;4524297;28;20506;-69
2022/09/16 04:42:49;;;;;;;1.83;0.90;;;;;;;;;;4557278;28;20073;-69
2022/09/16 04:44:59;;;;;;;1.40;0.80;;;;;;;;;;4558165;28;20049;-71
2022/09/16 04:47:10;;;;;;;1.13;0.70;;;;;;;;;;4543220;28;20045;-70
2022/09/16 04:49:20;;;;;;;1.00;0.75;;;;;;;;;;4541692;28;20124;-70
2022/09/16 04:51:31;;;;;;;1.65;0.90;;;;;;;;;;4554734;28;20533;-70
2022/09/16 04:53:43;;;;;;;1.50;0.88;;;;;;;;;;4554953;28;20043;-70
2022/09/16 04:56:20;;;;;;;2.25;1.17;;;;;;;;;;4575573;28;20044;-73
2022/09/16 04:58:34;;;;;;;1.63;0.90;;;;;;;;;;4572685;28;20090;-69
2022/09/16 05:00:45;;;;;;;2.60;1.10;;;;;;;;;;4557042;28;20052;-70
2022/09/16 05:02:56;;;;;;;2.83;1.10;;;;;;;;;;4556720;28;20511;-70
2022/09/16 05:05:07;;;;;;;2.42;1.38;;;;;;;;;;4554825;28;20048;-70
2022/09/16 05:07:17;;;;;;;1.77;1.00;;;;;;;;;;4523630;28;20041;-69
2022/09/16 05:09:28;;;;;;;2.70;1.15;;;;;;;;;;4563820;28;20054;-70
2022/09/16 05:11:39;;;;;;;1.48;1.10;;;;;;;;;;4547508;28;20151;-70
2022/09/16 05:13:50;;;;;;;2.00;1.20;;;;;;;;;;4537053;28;20548;-70
2022/09/16 05:16:02;;;;;;;1.73;1.23;;;;;;;;;;4571709;28;20044;-70
2022/09/16 05:18:15;;;;;;;1.83;1.20;;;;;;;;;;4540635;28;20032;-69
2022/09/16 05:20:26;;;;;;;2.88;1.33;;;;;;;;;;4573795;28;20052;-70
2022/09/16 05:22:39;;;;;;;1.83;1.20;;;;;;;;;;4553170;28;20052;-69
2022/09/16 05:24:50;;;;;;;1.80;1.20;;;;;;;;;;4571180;28;20040;-73
2022/09/16 05:27:03;;;;;;;1.85;1.10;;;;;;;;;;4547174;28;20049;-70
2022/09/16 05:29:15;;;;;;;2.97;1.40;;;;;;;;;;4569692;28;20040;-70
2022/09/16 05:31:31;;;;;;;2.22;1.30;;;;;;;;;;4554664;28;20571;-71
2022/09/16 05:33:43;;;;;;;1.85;1.10;;;;;;;;;;4572689;28;20210;-70
2022/09/16 05:35:54;;;;;;;2.00;1.30;;;;;;;;;;4553591;28;20544;-70
2022/09/16 05:38:04;;;;;;;2.58;1.20;;;;;;;;;;4564258;28;20047;-69
2022/09/16 05:40:14;;;;;;;1.95;1.23;;;;;;;;;;4542469;28;20149;-69
2022/09/16 05:42:25;;;;;;;2.42;1.10;;;;;;;;;;4557751;23;20046;-66
2022/09/16 05:44:35;;;;;;;2.33;1.25;;;;;;;;;;4563413;28;20032;-65
2022/09/16 05:46:46;;;;;;;2.08;1.40;;;;;;;;;;4580531;27;20444;-65
2022/09/16 05:48:56;;;;;;;2.20;1.33;;;;;;;;;;4563842;28;20131;-66
2022/09/16 05:51:07;;;;;;;1.90;1.00;;;;;;;;;;4563125;28;23162;-65
2022/09/16 05:53:17;;;;;;;1.85;1.00;;;;;;;;;;4562804;28;20037;-66
2022/09/16 05:55:28;;;;;;;1.67;1.00;;;;;;;;;;4562997;28;20036;-65
2022/09/16 05:57:38;;;;;;;2.03;0.90;;;;;;;;;;4561331;28;20044;-65
2022/09/16 05:59:48;;;;;;;2.15;0.80;;;;;;;;;;4562608;28;20036;-65
2022/09/16 06:01:59;;;;;;;1.75;0.90;;;;;;;;;;4561952;28;20512;-66
2022/09/16 06:04:11;;;;;;;2.00;0.93;;;;;;;;;;4562335;28;23144;-66
2022/09/16 06:06:32;;;;;;;1.48;0.82;;;;;;;;;;4561744;28;20091;-65
2022/09/16 06:08:42;;;;;;;1.38;0.82;;;;;;;;;;4561012;28;20048;-66
2022/09/16 06:10:52;;;;;;;1.27;0.70;;;;;;;;;;4561152;28;20036;-65
2022/09/16 06:13:03;;;;;;;1.83;0.73;;;;;;;;;;4564044;28;20040;-66
2022/09/16 06:15:13;;;;;;;0.98;0.60;;;;;;;;;;4564132;28;20098;-66
2022/09/16 06:17:24;;;;;;;0.55;0.52;;;;;;;;;;4571384;28;20365;-66
2022/09/16 06:19:34;;;;;;;1.55;0.70;;;;;;;;;;4562258;28;20028;-66
2022/09/16 06:21:45;;;;;;;1.10;0.60;;;;;;;;;;4558984;28;20135;-66
2022/09/16 06:23:56;;;;;;;0.52;0.50;;;;;;;;;;4563391;28;20058;-66
2022/09/16 06:26:18;;;;;;;0.95;0.60;;;;;;;;;;4561676;28;20031;-66
2022/09/16 06:28:29;;;;;;;1.58;0.70;;;;;;;;;;4563124;28;20151;-66
2022/09/16 06:30:40;;;;;;;0.95;0.63;;;;;;;;;;4565827;28;20035;-67
2022/09/16 06:32:50;;;;;;;0.57;0.50;;;;;;;;;;4563806;28;20047;-66
2022/09/16 06:35:01;;;;;;;1.10;0.60;;;;;;;;;;4560184;28;20045;-66
2022/09/16 06:37:13;;;;;;;1.92;0.57;;;;;;;;;;4562435;28;20626;-66
2022/09/16 06:39:23;;;;;;;1.05;0.65;;;;;;;;;;4561325;28;20052;-67
2022/09/16 06:41:34;;;;;;;0.93;0.60;;;;;;;;;;4564987;28;20151;-66
2022/09/16 06:43:45;;;;;;;1.85;0.77;;;;;;;;;;4563509;28;20518;-66
2022/09/16 06:45:59;;;;;;;1.67;0.70;;;;;;;;;;4560638;28;20145;-66
2022/09/16 06:48:10;;;;;;;0.95;0.52;;;;;;;;;;4563484;28;20059;-66
2022/09/16 06:50:20;;;;;;;1.02;0.60;;;;;;;;;;4563180;28;20035;-66
2022/09/16 06:52:31;;;;;;;0.82;0.50;;;;;;;;;;4548045;28;20044;-66
2022/09/16 06:54:42;;;;;;;0.77;0.50;;;;;;;;;;4563428;28;20522;-66
2022/09/16 06:56:52;;;;;;;0.77;0.50;;;;;;;;;;4562851;28;20037;-66
2022/09/16 06:59:04;;;;;;;1.17;0.60;;;;;;;;;;4563269;28;20112;-65
2022/09/16 07:01:17;;;;;;;2.05;0.60;;;;;;;;;;4560889;28;20545;-66
2022/09/16 07:03:27;;;;;;;1.38;0.63;;;;;;;;;;4557643;28;20044;-66
2022/09/16 07:05:39;;;;;;;0.85;0.50;;;;;;;;;;4565876;28;20536;-66
2022/09/16 07:07:51;;;;;;;0.95;0.60;;;;;;;;;;4563908;28;20041;-65
2022/09/16 07:10:02;;;;;;;1.48;0.43;;;;;;;;;;4563063;28;20565;-66
2022/09/16 07:12:12;;;;;;;1.38;0.60;;;;;;;;;;4560942;28;20040;-66
2022/09/16 07:14:23;;;;;;;1.20;0.63;;;;;;;;;;4563932;28;20052;-67
2022/09/16 07:16:33;;;;;;;1.27;0.68;;;;;;;;;;4562588;28;20040;-65
2022/09/16 07:18:45;;;;;;;1.60;0.60;;;;;;;;;;4564442;27;20036;-66
2022/09/16 07:21:05;;;;;;;1.20;0.57;;;;;;;;;;4562036;28;20131;-64
2022/09/16 07:23:16;;;;;;;1.55;0.50;;;;;;;;;;4564863;28;20036;-64
2022/09/16 07:25:27;;;;;;;0.82;0.55;;;;;;;;;;4563507;28;20494;-64
2022/09/16 07:27:37;;;;;;;1.45;0.63;;;;;;;;;;4560758;28;20050;-64
2022/09/16 07:29:48;;;;;;;0.90;0.40;;;;;;;;;;4563549;28;20103;-64
2022/09/16 07:31:59;;;;;;;0.85;0.40;;;;;;;;;;4563364;28;20052;-64
2022/09/16 07:34:10;;;;;;;0.43;0.30;;;;;;;;;;4561768;28;20438;-64
2022/09/16 07:36:23;;;;;;;0.80;0.30;;;;;;;;;;4562901;28;20171;-65
2022/09/16 07:38:33;;;;;;;0.70;0.40;;;;;;;;;;4563872;28;20040;-64
2022/09/16 07:40:44;;;;;;;1.50;0.20;;;;;;;;;;4561912;28;20498;-65
2022/09/16 07:42:54;;;;;;;0.73;0.30;;;;;;;;;;4562443;28;20033;-65
2022/09/16 07:45:05;;;;;;;0.28;0.20;;;;;;;;;;4564324;28;20028;-65
2022/09/16 07:47:16;;;;;;;0.75;0.30;;;;;;;;;;4563182;28;20378;-65
2022/09/16 07:49:26;;;;;;;0.60;0.30;;;;;;;;;;4563148;28;20555;-66
2022/09/16 07:51:37;;;;;;;1.05;0.30;;;;;;;;;;4562757;28;23248;-66
2022/09/16 07:53:51;;;;;;;0.35;0.25;;;;;;;;;;4564172;28;20131;-65
2022/09/16 07:56:08;;;;;;;0.77;0.30;;;;;;;;;;4566204;28;20036;-65
2022/09/16 07:58:19;;;;;;;1.20;0.30;;;;;;;;;;4563780;28;20783;-65
2022/09/16 08:00:29;;;;;;;1.30;0.40;;;;;;;;;;4564059;28;20057;-65
2022/09/16 08:02:40;;;;;;;1.33;0.50;;;;;;;;;;4562525;28;20517;-66
2022/09/16 08:04:50;;;;;;;0.80;0.35;;;;;;;;;;4564691;27;20039;-66
2022/09/16 08:07:01;;;;;;;0.75;0.38;;;;;;;;;;4561095;28;20039;-66
2022/09/16 08:09:11;;;;;;;0.82;0.50;;;;;;;;;;4561182;28;20052;-67
2022/09/16 08:11:22;;;;;;;0.70;0.40;;;;;;;;;;4563483;28;20118;-69
2022/09/16 08:13:34;;;;;;;0.40;0.40;;;;;;;;;;4561391;28;20112;-67
2022/09/16 08:15:45;;;;;;;0.90;0.30;;;;;;;;;;4564684;28;20048;-67
2022/09/16 08:17:55;;;;;;;0.93;0.50;;;;;;;;;;4563146;28;20029;-72
2022/09/16 08:20:06;;;;;;;1.15;0.50;;;;;;;;;;4563352;28;20039;-66
2022/09/16 08:22:16;;;;;;;0.30;0.30;;;;;;;;;;4560237;28;20704;-66
2022/09/16 08:24:27;;;;;;;1.00;0.40;;;;;;;;;;4548094;28;20481;-70
2022/09/16 08:26:37;;;;;;;0.85;0.50;;;;;;;;;;4561999;28;20041;-69
2022/09/16 08:28:48;;;;;;;1.00;0.60;;;;;;;;;;4562976;28;20032;-68
2022/09/16 08:31:00;;;;;;;1.45;0.30;;;;;;;;;;4562405;27;20068;-68
2022/09/16 08:33:11;;;;;;;0.68;0.30;;;;;;;;;;4564800;28;20958;-69
2022/09/16 08:35:21;;;;;;;1.15;0.50;;;;;;;;;;4564762;27;20120;-68
2022/09/16 08:37:33;;;;;;;0.98;0.40;;;;;;;;;;4580460;27;20178;-70
2022/09/16 08:39:46;;;;;;;1.13;0.40;;;;;;;;;;4565212;28;20032;-68
2022/09/16 08:42:27;;;;;;;1.40;0.50;;;;;;;;;;4565861;28;20147;-68
2022/09/16 08:45:02;;;;;;;0.65;0.30;;;;;;;;;;4564941;28;20032;-69
2022/09/16 08:47:33;;;;;;;0.68;0.30;;;;;;;;;;4557184;28;20040;-73
2022/09/16 08:49:45;;;;;;;0.70;0.35;;;;;;;;;;4563492;28;20588;-73
2022/09/16 08:51:57;;;;;;;0.38;0.20;;;;;;;;;;4563802;28;20630;-71
2022/09/16 08:54:26;;;;;;;0.45;0.15;;;;;;;;;;4556350;28;20052;-70
2022/09/16 08:56:37;;;;;;;1.00;0.10;;;;;;;;;;4565444;28;20036;-70
2022/09/16 08:58:52;;;;;;;0.95;0.52;;;;;;;;;;4566669;28;20028;-70
2022/09/16 09:01:13;;;;;;;1.45;0.28;;;;;;;;;;4566420;28;20035;-71
2022/09/16 09:03:36;;;;;;;0.22;0.20;;;;;;;;;;4562385;28;20142;-71
2022/09/16 09:05:58;;;;;;;1.02;0.32;;;;;;;;;;4566368;28;20844;-71
2022/09/16 09:08:31;;;;;;;1.10;0.30;;;;;;;;;;4567610;28;20036;-71
2022/09/16 09:10:49;;;;;;;1.10;0.40;;;;;;;;;;4556142;28;20118;-70
2022/09/16 09:13:19;;;;;;;0.75;0.20;;;;;;;;;;4567590;28;20037;-70
2022/09/16 09:15:32;;;;;;;0.60;0.20;;;;;;;;;;4567873;28;20169;-70
2022/09/16 09:17:58;;;;;;;0.70;0.20;;;;;;;;;;4565693;28;20036;-70
2022/09/16 09:20:25;;;;;;;0.25;0.20;;;;;;;;;;4557883;28;20514;-70
2022/09/16 09:23:11;;;;;;;0.43;0.20;;;;;;;;;;4564300;28;20033;-70
2022/09/16 09:25:46;;;;;;;1.10;0.20;;;;;;;;;;4563835;28;20028;-71
2022/09/16 09:28:07;;;;;;;0.52;0.30;;;;;;;;;;4565479;28;20052;-70
2022/09/16 09:30:21;;;;;;;0.90;0.28;;;;;;;;;;4574550;28;20032;-70
2022/09/16 09:32:46;;;;;;;0.82;0.30;;;;;;;;;;4562928;28;20036;-71
2022/09/16 09:35:21;;;;;;;0.88;0.20;;;;;;;;;;4565647;28;20045;-71
2022/09/16 09:38:07;;;;;;;0.40;0.20;;;;;;;;;;4567656;28;20051;-71
2022/09/16 09:40:26;;;;;;;0.47;0.25;;;;;;;;;;4561819;28;20083;-70
2022/09/16 09:43:07;;;;;;;0.60;0.30;;;;;;;;;;4579047;27;20074;-70
2022/09/16 09:45:24;;;;;;;1.20;0.30;;;;;;;;;;4564052;28;20198;-71
2022/09/16 09:47:42;;;;;;;0.40;0.20;;;;;;;;;;4563063;28;20052;-70
2022/09/16 09:49:57;;;;;;;0.60;0.30;;;;;;;;;;4565031;27;20764;-71
2022/09/16 09:52:38;;;;;;;0.75;0.43;;;;;;;;;;4562824;28;20043;-71
2022/09/16 09:54:49;;;;;;;1.25;0.30;;;;;;;;;;4564423;28;20037;-71
2022/09/16 09:57:09;;;;;;;0.88;0.40;;;;;;;;;;4563393;28;20047;-70
2022/09/16 09:59:30;;;;;;;0.65;0.22;;;;;;;;;;4564472;28;20918;-70
2022/09/16 10:01:40;;;;;;;0.63;0.20;;;;;;;;;;4565243;28;20020;-69
2022/09/16 10:03:53;;;;;;;1.23;0.30;;;;;;;;;;4563409;28;33501;-69
2022/09/16 10:06:04;;;;;;;1.33;0.30;;;;;;;;;;4562264;28;20060;-69
2022/09/16 10:08:45;;;;;;;0.52;0.20;;;;;;;;;;4563684;28;20123;-70
2022/09/16 10:11:00;;;;;;;0.80;0.20;;;;;;;;;;4562540;28;20040;-69
2022/09/16 10:13:11;;;;;;;1.00;0.20;;;;;;;;;;4562079;28;20020;-69
2022/09/16 10:15:26;;;;;;;2.38;0.30;;;;;;;;;;4565253;28;20083;-70
2022/09/16 10:17:37;;;;;;;1.02;0.35;;;;;;;;;;4563625;28;20866;-71
2022/09/16 10:19:55;;;;;;;2.13;0.50;;;;;;;;;;4562384;28;27970;-70
2022/09/16 10:22:17;;;;;;;1.23;0.40;;;;;;;;;;4564110;28;20322;-71
2022/09/16 10:24:32;;;;;;;1.13;0.43;;;;;;;;;;4562009;28;20016;-71
2022/09/16 10:26:42;;;;;;;1.10;0.35;;;;;;;;;;4565535;28;20102;-71
2022/09/16 10:28:58;;;;;;;0.95;0.20;;;;;;;;;;4562804;28;20483;-71
2022/09/16 10:31:09;;;;;;;0.43;0.20;;;;;;;;;;4564401;28;20068;-71
2022/09/16 10:33:26;;;;;;;0.55;0.30;;;;;;;;;;4565386;28;20342;-71
2022/09/16 10:35:37;;;;;;;4.40;1.10;;;;;;;;;;4563198;28;20131;-71
2022/09/16 10:37:51;;;;;;;1.17;0.38;;;;;;;;;;4560646;28;20106;-70
2022/09/16 10:40:05;;;;;;;0.85;0.30;;;;;;;;;;4563240;27;20074;-71
2022/09/16 10:42:24;;;;;;;0.60;0.30;;;;;;;;;;4570500;28;20624;-70
2022/09/16 10:44:35;;;;;;;0.88;0.30;;;;;;;;;;4564147;28;20023;-71
2022/09/16 10:47:13;;;;;;;0.85;0.40;;;;;;;;;;4547315;28;20084;-71
2022/09/16 10:49:33;;;;;;;0.65;0.30;;;;;;;;;;4565129;28;20570;-71
2022/09/16 10:51:44;;;;;;;1.05;0.30;;;;;;;;;;4563496;28;20059;-70
2022/09/16 10:54:04;;;;;;;1.10;0.40;;;;;;;;;;4553733;28;20155;-71
2022/09/16 10:56:18;;;;;;;1.00;0.30;;;;;;;;;;4563796;27;20033;-71
2022/09/16 10:58:28;;;;;;;1.35;0.40;;;;;;;;;;4563267;28;21075;-71
2022/09/16 11:00:55;;;;;;;0.55;0.30;;;;;;;;;;4565619;28;20085;-71
2022/09/16 11:03:44;;;;;;;1.52;0.50;;;;;;;;;;4563631;28;20039;-70
2022/09/16 11:06:14;;;;;;;1.08;0.38;;;;;;;;;;4501881;28;20680;-72
2022/09/16 11:08:41;;;;;;;0.68;0.30;;;;;;;;;;4522899;28;20049;-72
2022/09/16 11:11:06;;;;;;;0.65;0.30;;;;;;;;;;4562443;28;20171;-71
2022/09/16 11:13:24;;;;;;;0.82;0.40;;;;;;;;;;4564636;28;20135;-71
2022/09/16 11:15:47;;;;;;;1.23;0.30;;;;;;;;;;4563874;28;20029;-72
2022/09/16 11:18:19;;;;;;;1.20;0.40;;;;;;;;;;4563267;28;20037;-71
2022/09/16 11:20:44;;;;;;;1.27;0.40;;;;;;;;;;4564201;28;20133;-71
2022/09/16 11:23:07;;;;;;;1.55;0.20;;;;;;;;;;4566946;28;20037;-71
2022/09/16 11:25:53;;;;;;;1.30;0.30;;;;;;;;;;4554811;28;20558;-71
2022/09/16 11:28:38;;;;;;;1.00;0.40;;;;;;;;;;4549558;27;20049;-70
2022/09/16 11:31:02;;;;;;;2.65;0.50;;;;;;;;;;4559556;28;20033;-70
2022/09/16 11:33:24;;;;;;;0.93;0.40;;;;;;;;;;4562013;28;20041;-71
2022/09/16 11:35:56;;;;;;;0.40;0.30;;;;;;;;;;4561038;28;20778;-71
2022/09/16 11:38:37;;;;;;;1.13;0.35;;;;;;;;;;4561292;28;20044;-70
2022/09/16 11:40:59;;;;;;;0.65;0.20;;;;;;;;;;4558453;28;20052;-70
2022/09/16 11:43:44;;;;;;;1.02;0.30;;;;;;;;;;4566208;28;20317;-71
2022/09/16 11:46:24;;;;;;;1.73;0.30;;;;;;;;;;4562809;28;20583;-71
2022/09/16 11:48:57;;;;;;;2.05;0.32;;;;;;;;;;4569653;27;20850;-70
2022/09/16 11:51:18;;;;;;;0.50;0.30;;;;;;;;;;4563658;28;20092;-71
2022/09/16 11:53:52;;;;;;;1.10;0.32;;;;;;;;;;4561930;28;20072;-71
2022/09/16 11:56:43;;;;;;;0.88;0.30;;;;;;;;;;4562348;28;20155;-71
2022/09/16 11:59:01;;;;;;;0.93;0.20;;;;;;;;;;4565306;28;20037;-71
2022/09/16 12:01:30;;;;;;;0.70;0.30;;;;;;;;;;4571512;28;20030;-71
2022/09/16 12:03:54;;;;;;;1.17;0.20;;;;;;;;;;4562848;28;20110;-71
2022/09/16 12:06:11;;;;;;;0.68;0.30;;;;;;;;;;4566598;28;20816;-72
2022/09/16 12:08:26;;;;;;;1.10;0.25;;;;;;;;;;4566327;28;20040;-72
2022/09/16 12:10:58;;;;;;;0.68;0.25;;;;;;;;;;4567078;28;20028;-71
2022/09/16 12:13:15;;;;;;;1.55;0.25;;;;;;;;;;4565915;28;20519;-72
2022/09/16 12:15:33;;;;;;;0.93;0.20;;;;;;;;;;4563237;28;20052;-72
2022/09/16 12:17:52;;;;;;;0.75;0.20;;;;;;;;;;4566886;28;20591;-72
2022/09/16 12:20:18;;;;;;;1.77;0.40;;;;;;;;;;4565417;28;20036;-71
2022/09/16 12:22:50;;;;;;;0.80;0.50;;;;;;;;;;4567823;28;20144;-71
2022/09/16 12:25:02;;;;;;;0.75;0.20;;;;;;;;;;4567202;28;20029;-71
2022/09/16 12:27:38;;;;;;;0.45;0.30;;;;;;;;;;4564559;28;20040;-71
2022/09/16 12:29:55;;;;;;;0.68;0.30;;;;;;;;;;4565415;28;20035;-71
2022/09/16 12:32:20;;;;;;;0.55;0.10;;;;;;;;;;4565420;28;20131;-71
2022/09/16 12:34:36;;;;;;;0.57;0.20;;;;;;;;;;4566896;28;20040;-71
2022/09/16 12:36:51;;;;;;;1.08;0.30;;;;;;;;;;4566119;28;20035;-70
2022/09/16 12:39:01;;;;;;;0.38;0.20;;;;;;;;;;4567225;28;20037;-70
2022/09/16 12:41:31;;;;;;;0.85;0.20;;;;;;;;;;4568069;28;20040;-70
2022/09/16 12:44:15;;;;;;;0.50;0.20;;;;;;;;;;4564900;28;20032;-71
2022/09/16 12:46:43;;;;;;;0.90;0.30;;;;;;;;;;4564990;28;20036;-71
2022/09/16 12:49:19;;;;;;;0.50;0.20;;;;;;;;;;4565589;28;20034;-71
2022/09/16 12:51:41;;;;;;;0.95;0.20;;;;;;;;;;4564893;28;20028;-71
2022/09/16 12:54:13;;;;;;;0.60;0.30;;;;;;;;;;4575516;28;20804;-71
2022/09/16 12:57:00;;;;;;;1.95;0.40;;;;;;;;;;4567654;28;20036;-70
2022/09/16 12:59:22;;;;;;;0.65;0.40;;;;;;;;;;4566677;28;20044;-71
2022/09/16 13:01:43;;;;;;;1.85;0.32;;;;;;;;;;4564275;28;20037;-70
2022/09/16 13:03:56;;;;;;;0.75;0.40;;;;;;;;;;4567199;28;20036;-69
2022/09/16 13:06:19;;;;;;;1.00;0.30;;;;;;;;;;4563741;28;20595;-69
2022/09/16 13:08:31;;;;;;;0.98;0.30;;;;;;;;;;4564139;28;20833;-70
2022/09/16 13:10:42;;;;;;;0.75;0.20;;;;;;;;;;4564338;28;20024;-69
2022/09/16 13:12:54;;;;;;;1.83;0.30;;;;;;;;;;4567414;28;20561;-70
2022/09/16 13:15:06;;;;;;;1.15;0.30;;;;;;;;;;4566993;28;20119;-69
2022/09/16 13:17:26;;;;;;;1.00;0.20;;;;;;;;;;4564606;28;20130;-70
2022/09/16 13:19:45;;;;;;;1.10;0.28;;;;;;;;;;4565344;28;20609;-69
2022/09/16 13:22:16;;;;;;;0.52;0.30;;;;;;;;;;4568941;28;20122;-70
2022/09/16 13:24:26;;;;;;;0.68;0.30;;;;;;;;;;4580908;27;20036;-70
2022/09/16 13:26:39;;;;;;;0.88;0.30;;;;;;;;;;4566963;28;20482;-69
2022/09/16 13:28:50;;;;;;;0.50;0.30;;;;;;;;;;4565806;28;20040;-70
2022/09/16 13:31:16;;;;;;;0.60;0.30;;;;;;;;;;4564616;28;20525;-69
2022/09/16 13:33:28;;;;;;;1.08;0.40;;;;;;;;;;4564815;28;20141;-69
2022/09/16 13:35:43;;;;;;;0.55;0.30;;;;;;;;;;4567232;28;20565;-70
2022/09/16 13:37:57;;;;;;;0.77;0.30;;;;;;;;;;4572665;28;20115;-69
2022/09/16 13:40:18;;;;;;;0.38;0.25;;;;;;;;;;4566136;28;20770;-69
2022/09/16 13:42:29;;;;;;;0.85;0.30;;;;;;;;;;4565950;28;21497;-68
2022/09/16 13:44:41;;;;;;;1.05;0.30;;;;;;;;;;4566114;28;20113;-69